Time;durP1;ratioP1;P1;durP2;ratioP2;P2;SDS_P1;SDS_P2;PMS_P1;PMS_P2;Temp;Humidity;BMP_temperature;BMP_pressure;BME280_temperature;BME280_humidity;BME280_pressure;Samples;Min_cycle;Max_cycle;Signal;HPM_P1;HPM_P2
2023/03/10 00:01:21;;;;;;;0.47;0.33;;;;;;;11.13;76.89;94739.22;5113345;28;20439;-57
2023/03/10 00:03:50;;;;;;;0.40;0.40;;;;;;;11.23;76.69;94739.84;5113404;28;20527;-57
2023/03/10 00:06:21;;;;;;;0.40;0.30;;;;;;;11.19;75.37;94736.19;5113258;28;20780;-57
2023/03/10 00:08:49;;;;;;;0.30;0.30;;;;;;;11.20;75.59;94737.78;5113512;28;20514;-56
2023/03/10 00:11:18;;;;;;;0.40;0.20;;;;;;;10.85;76.27;94725.00;5113300;28;20952;-57
2023/03/10 00:13:46;;;;;;;0.50;0.50;;;;;;;10.65;80.78;94746.47;5113219;28;20431;-57
2023/03/10 00:16:19;;;;;;;0.40;0.30;;;;;;;10.80;79.62;94738.31;5113193;28;20467;-57
2023/03/10 00:18:48;;;;;;;0.40;0.30;;;;;;;10.96;78.52;94737.03;5112997;28;20475;-57
2023/03/10 00:21:17;;;;;;;0.73;0.73;;;;;;;11.04;77.26;94720.50;5112928;28;20470;-57
2023/03/10 00:23:46;;;;;;;0.30;0.20;;;;;;;10.34;76.66;94610.13;5112589;28;20439;-57
2023/03/10 00:26:16;;;;;;;0.30;0.20;;;;;;;10.69;77.66;94728.91;5112804;28;20424;-57
2023/03/10 00:28:45;;;;;;;0.40;0.30;;;;;;;10.08;82.29;94753.38;5112461;28;20439;-57
2023/03/10 00:31:14;;;;;;;0.40;0.30;;;;;;;10.28;85.15;94756.91;5113286;28;20548;-57
2023/03/10 00:33:45;;;;;;;0.40;0.30;;;;;;;10.59;83.61;94760.81;5112785;28;20432;-57
2023/03/10 00:36:16;;;;;;;0.80;0.70;;;;;;;10.70;83.41;94760.41;5112923;28;20455;-56
2023/03/10 00:38:45;;;;;;;0.30;0.20;;;;;;;10.73;80.69;94730.69;5112666;28;20467;-57
2023/03/10 00:41:16;;;;;;;0.40;0.40;;;;;;;10.92;78.73;94751.94;5112690;28;20449;-56
2023/03/10 00:43:44;;;;;;;0.40;0.30;;;;;;;10.88;77.87;94731.59;5112984;28;20900;-57
2023/03/10 00:46:13;;;;;;;0.30;0.27;;;;;;;10.40;77.22;94683.16;5112810;28;20476;-57
2023/03/10 00:48:42;;;;;;;0.53;0.53;;;;;;;8.53;85.94;94573.72;5112450;28;20432;-57
2023/03/10 00:51:12;;;;;;;0.83;0.83;;;;;;;8.77;98.53;94742.94;5112221;28;20821;-56
2023/03/10 00:53:41;;;;;;;0.53;0.50;;;;;;;8.53;100.00;94742.75;5112375;28;20526;-56
2023/03/10 00:56:12;;;;;;;0.97;0.87;;;;;;;8.67;100.00;94704.16;5112427;28;20809;-57
2023/03/10 00:58:41;;;;;;;0.30;0.20;;;;;;;8.44;99.02;94564.03;5112116;28;21044;-57
2023/03/10 01:01:14;;;;;;;0.50;0.43;;;;;;;9.61;93.19;94749.81;5112468;28;20489;-57
2023/03/10 01:03:42;;;;;;;0.40;0.30;;;;;;;9.48;94.95;94749.38;5112278;28;20521;-57
2023/03/10 01:06:13;;;;;;;0.30;0.20;;;;;;;9.18;92.95;94699.34;5112239;28;20473;-57
2023/03/10 01:08:42;;;;;;;0.40;0.40;;;;;;;9.62;90.71;94756.66;5112591;28;20479;-57
2023/03/10 01:11:13;;;;;;;0.40;0.40;;;;;;;9.08;91.89;94685.41;5112193;28;20434;-57
2023/03/10 01:13:41;;;;;;;0.40;0.30;;;;;;;9.96;87.65;94744.22;5112566;28;20486;-56
2023/03/10 01:16:10;;;;;;;2.73;0.30;;;;;;;9.75;89.23;94763.97;5111737;28;20933;-57
2023/03/10 01:18:39;;;;;;;0.40;0.40;;;;;;;9.43;89.37;94722.97;5112068;28;20465;-56
2023/03/10 01:21:07;;;;;;;0.40;0.30;;;;;;;9.66;87.40;94721.47;5112131;28;20549;-57
2023/03/10 01:23:37;;;;;;;0.40;0.30;;;;;;;10.00;86.19;94750.53;5111973;28;20453;-57
2023/03/10 01:26:05;;;;;;;0.30;0.30;;;;;;;10.17;84.20;94750.91;5111222;28;20540;-57
2023/03/10 01:28:34;;;;;;;0.40;0.30;;;;;;;10.12;82.89;94733.22;5111470;28;20510;-56
2023/03/10 01:31:04;;;;;;;0.30;0.20;;;;;;;9.90;82.24;94685.25;5111399;28;20438;-56
2023/03/10 01:33:33;;;;;;;0.40;0.30;;;;;;;9.95;82.64;94750.56;5111685;28;20861;-57
2023/03/10 01:36:02;;;;;;;0.30;0.30;;;;;;;9.92;82.91;94719.38;5114611;28;20518;-56
2023/03/10 01:38:30;;;;;;;0.40;0.30;;;;;;;9.86;83.53;94694.81;5118908;28;20475;-56
2023/03/10 01:41:00;;;;;;;0.30;0.20;;;;;;;10.31;82.34;94746.56;5118874;28;20435;-56
2023/03/10 01:43:31;;;;;;;0.80;0.43;;;;;;;9.93;83.70;94744.78;5118695;28;20430;-56
2023/03/10 01:46:35;;;;;;;0.50;0.33;;;;;;;8.88;84.43;94604.38;5118875;28;20439;-56
2023/03/10 01:49:10;;;;;;;0.90;0.90;;;;;;;9.30;87.06;94714.84;5118632;28;20926;-56
2023/03/10 01:51:41;;;;;;;0.50;0.50;;;;;;;9.47;88.37;94742.50;5118610;28;20776;-56
2023/03/10 01:54:14;;;;;;;0.50;0.50;;;;;;;9.27;87.63;94705.63;5118859;28;20443;-56
2023/03/10 01:56:45;;;;;;;0.43;0.40;;;;;;;9.47;88.71;94739.06;5118542;28;20415;-56
2023/03/10 01:59:14;;;;;;;1.10;0.83;;;;;;;9.50;88.50;94741.16;5118491;28;20629;-56
2023/03/10 02:01:43;;;;;;;0.60;0.33;;;;;;;9.41;90.24;94742.81;5118936;28;20802;-56
2023/03/10 02:04:17;;;;;;;0.40;0.30;;;;;;;8.93;88.38;94644.78;5118486;28;20794;-56
2023/03/10 02:06:47;;;;;;;0.40;0.40;;;;;;;9.67;87.42;94744.19;5118530;28;20425;-56
2023/03/10 02:09:17;;;;;;;0.60;0.50;;;;;;;9.66;88.41;94737.34;5118591;28;20458;-56
2023/03/10 02:11:49;;;;;;;0.57;0.50;;;;;;;9.50;89.60;94746.44;5118632;28;20515;-56
2023/03/10 02:14:18;;;;;;;0.30;0.30;;;;;;;9.41;90.54;94751.53;5118350;28;20430;-56
2023/03/10 02:16:46;;;;;;;0.40;0.30;;;;;;;9.54;89.23;94745.63;5118472;28;20431;-56
2023/03/10 02:19:34;;;;;;;0.30;0.30;;;;;;;9.42;88.61;94733.81;5118482;28;20464;-56
2023/03/10 02:22:06;;;;;;;0.40;0.30;;;;;;;9.48;88.83;94744.09;5118028;28;20467;-56
2023/03/10 02:24:43;;;;;;;0.47;0.33;;;;;;;9.11;90.25;94727.94;5118320;28;20428;-56
2023/03/10 02:27:16;;;;;;;1.00;1.00;;;;;;;9.03;94.91;94746.25;5118599;28;20888;-56
2023/03/10 02:29:50;;;;;;;0.30;0.30;;;;;;;9.29;92.64;94768.81;5118216;28;20474;-56
2023/03/10 02:32:28;;;;;;;0.40;0.30;;;;;;;9.50;90.14;94741.97;5118584;28;20446;-56
2023/03/10 02:34:57;;;;;;;0.30;0.20;;;;;;;9.34;91.24;94737.03;5118218;28;20426;-56
2023/03/10 02:37:28;;;;;;;0.50;0.30;;;;;;;9.13;90.25;94683.53;5118227;28;20505;-56
2023/03/10 02:39:57;;;;;;;0.40;0.30;;;;;;;9.18;91.94;94706.50;5118214;28;20511;-56
2023/03/10 02:42:33;;;;;;;1.57;0.47;;;;;;;9.23;92.97;94744.25;5117916;28;20463;-56
2023/03/10 02:45:02;;;;;;;0.40;0.30;;;;;;;8.32;98.28;94673.38;5118287;28;20427;-55
2023/03/10 02:47:30;;;;;;;0.50;0.30;;;;;;;9.06;98.09;94740.41;5115734;28;21018;-55
2023/03/10 02:49:59;;;;;;;0.30;0.20;;;;;;;9.31;93.84;94733.09;5114758;28;20973;-56
2023/03/10 02:52:34;;;;;;;0.40;0.30;;;;;;;8.80;92.52;94637.47;5114510;28;20516;-55
2023/03/10 02:55:03;;;;;;;0.40;0.37;;;;;;;9.34;92.02;94711.38;5114898;28;20421;-55
2023/03/10 02:57:32;;;;;;;0.30;0.20;;;;;;;8.99;92.98;94671.19;5114319;28;20813;-56
2023/03/10 03:00:01;;;;;;;0.37;0.30;;;;;;;8.86;98.18;94742.09;5114574;28;20852;-55
2023/03/10 03:02:29;;;;;;;0.37;0.27;;;;;;;8.22;100.00;94694.50;5114276;28;20426;-55
2023/03/10 03:04:58;;;;;;;0.40;0.20;;;;;;;7.47;100.00;94541.75;5114167;28;20514;-56
2023/03/10 03:07:27;;;;;;;0.50;0.50;;;;;;;8.68;100.00;94724.19;5114677;28;20816;-56
2023/03/10 03:09:56;;;;;;;0.40;0.27;;;;;;;7.54;100.00;94579.94;5114718;28;20446;-56
2023/03/10 03:12:24;;;;;;;0.30;0.20;;;;;;;8.85;100.00;94726.50;5114132;28;20457;-56
2023/03/10 03:14:54;;;;;;;0.30;0.20;;;;;;;8.71;100.00;94723.66;5113915;28;20439;-56
2023/03/10 03:17:22;;;;;;;0.50;0.40;;;;;;;8.65;97.85;94671.91;5114157;28;20435;-56
2023/03/10 03:19:51;;;;;;;1.27;0.40;;;;;;;9.28;94.20;94717.00;5113827;28;20489;-57
2023/03/10 03:22:19;;;;;;;0.40;0.30;;;;;;;9.10;92.99;94672.72;5113900;28;20496;-57
2023/03/10 03:24:47;;;;;;;0.40;0.30;;;;;;;9.39;91.74;94714.00;5114332;28;20884;-57
2023/03/10 03:27:16;;;;;;;0.30;0.30;;;;;;;8.83;92.17;94654.63;5114231;28;20423;-57
2023/03/10 03:29:44;;;;;;;0.40;0.30;;;;;;;8.75;96.01;94702.78;5113909;28;20861;-57
2023/03/10 03:32:14;;;;;;;0.40;0.30;;;;;;;8.85;96.82;94697.44;5113892;28;20501;-57
2023/03/10 03:34:42;;;;;;;0.40;0.30;;;;;;;9.22;95.50;94710.16;5112909;28;20999;-56
2023/03/10 03:37:10;;;;;;;0.37;0.27;;;;;;;8.98;94.38;94704.75;5113599;28;20435;-56
2023/03/10 03:39:39;;;;;;;4.10;0.50;;;;;;;9.26;94.70;94711.19;5113402;28;20977;-56
2023/03/10 03:42:08;;;;;;;0.40;0.40;;;;;;;9.16;94.67;94711.28;5113335;28;20434;-56
2023/03/10 03:44:36;;;;;;;0.40;0.30;;;;;;;7.78;99.11;94552.97;5113276;28;20422;-57
2023/03/10 03:47:07;;;;;;;0.57;0.33;;;;;;;8.51;100.00;94710.53;5113357;28;20461;-56
2023/03/10 03:49:37;;;;;;;0.60;0.40;;;;;;;8.59;100.00;94719.75;5113001;28;20438;-56
2023/03/10 03:52:07;;;;;;;1.00;0.97;;;;;;;7.91;100.00;94637.63;5113060;28;20911;-56
2023/03/10 03:54:35;;;;;;;2.20;1.30;;;;;;;8.32;100.00;94671.81;5113183;28;20878;-56
2023/03/10 03:57:04;;;;;;;1.67;1.67;;;;;;;8.85;100.00;94714.06;5113043;28;20502;-56
2023/03/10 03:59:32;;;;;;;1.10;1.07;;;;;;;8.71;99.12;94676.09;5112538;28;21085;-56
2023/03/10 04:02:00;;;;;;;1.20;1.10;;;;;;;8.87;100.00;94719.09;5112802;28;20426;-56
2023/03/10 04:04:29;;;;;;;0.83;0.60;;;;;;;9.04;98.32;94722.16;5112873;28;20436;-56
2023/03/10 04:06:58;;;;;;;0.40;0.30;;;;;;;8.95;99.40;94724.59;5113478;28;20430;-56
2023/03/10 04:09:27;;;;;;;0.50;0.50;;;;;;;8.94;100.00;94725.66;5113368;28;20438;-56
2023/03/10 04:11:56;;;;;;;1.43;1.33;;;;;;;8.70;97.79;94666.59;5113158;28;20469;-55
2023/03/10 04:14:24;;;;;;;0.40;0.37;;;;;;;7.95;96.42;94534.97;5112903;28;20426;-55
2023/03/10 04:16:52;;;;;;;0.50;0.40;;;;;;;9.05;97.35;94715.03;5113189;28;20463;-56
2023/03/10 04:19:21;;;;;;;0.40;0.40;;;;;;;9.08;97.22;94706.56;5113226;28;20443;-56
2023/03/10 04:21:49;;;;;;;1.00;0.90;;;;;;;9.15;96.31;94709.69;5112662;28;20476;-56
2023/03/10 04:24:19;;;;;;;0.40;0.30;;;;;;;9.11;95.66;94708.66;5112891;28;20445;-56
2023/03/10 04:26:47;;;;;;;0.90;0.90;;;;;;;8.46;96.73;94623.41;5112264;28;20429;-56
2023/03/10 04:29:16;;;;;;;0.40;0.30;;;;;;;8.90;98.47;94694.78;5111801;28;21022;-56
2023/03/10 04:31:44;;;;;;;0.40;0.40;;;;;;;8.85;98.51;94686.88;5113014;28;20443;-56
2023/03/10 04:34:26;;;;;;;0.40;0.30;;;;;;;9.04;98.91;94708.16;5112991;28;20515;-56
2023/03/10 04:36:54;;;;;;;0.63;0.63;;;;;;;8.91;98.24;94693.69;5113107;28;20453;-56
2023/03/10 04:39:24;;;;;;;0.50;0.43;;;;;;;8.70;96.74;94628.84;5113136;28;20461;-56
2023/03/10 04:41:52;;;;;;;0.50;0.50;;;;;;;9.20;96.28;94694.56;5112908;28;20434;-56
2023/03/10 04:44:20;;;;;;;0.60;0.60;;;;;;;9.03;97.32;94688.09;5112573;28;20474;-56
2023/03/10 04:46:58;;;;;;;0.90;0.70;;;;;;;9.27;95.21;94702.19;5112529;28;20438;-56
2023/03/10 04:49:27;;;;;;;1.47;1.37;;;;;;;9.35;94.37;94707.69;5112459;28;20477;-56
2023/03/10 04:51:55;;;;;;;1.83;1.60;;;;;;;9.50;92.78;94693.56;5112447;28;20514;-56
2023/03/10 04:54:25;;;;;;;3.10;2.90;;;;;;;9.48;93.08;94715.00;5112689;28;20934;-56
2023/03/10 04:56:53;;;;;;;6.00;3.10;;;;;;;9.13;94.63;94694.09;5112308;28;20428;-56
2023/03/10 04:59:22;;;;;;;1.80;1.07;;;;;;;8.48;100.00;94713.72;5112627;28;20493;-56
2023/03/10 05:01:51;;;;;;;1.83;1.03;;;;;;;8.32;100.00;94712.22;5111777;28;20475;-56
2023/03/10 05:04:19;;;;;;;1.73;1.60;;;;;;;8.36;100.00;94705.31;5112389;28;20496;-56
2023/03/10 05:06:50;;;;;;;0.77;0.77;;;;;;;8.63;100.00;94707.56;5112154;28;20491;-57
2023/03/10 05:09:19;;;;;;;2.27;2.17;;;;;;;8.81;100.00;94713.03;5112000;28;20469;-57
2023/03/10 05:11:49;;;;;;;0.60;0.40;;;;;;;9.02;99.42;94705.00;5112041;28;20512;-57
2023/03/10 05:14:17;;;;;;;2.33;2.23;;;;;;;9.00;99.11;94685.97;5112226;28;20506;-57
2023/03/10 05:16:47;;;;;;;3.30;1.33;;;;;;;9.21;98.25;94698.00;5111636;28;20429;-56
2023/03/10 05:19:16;;;;;;;2.07;1.93;;;;;;;9.16;98.24;94682.94;5111763;28;20490;-56
2023/03/10 05:21:44;;;;;;;0.50;0.40;;;;;;;9.27;97.88;94692.41;5111159;28;20499;-56
2023/03/10 05:24:12;;;;;;;5.60;1.43;;;;;;;9.46;100.00;94705.75;5110966;28;20490;-56
2023/03/10 05:26:41;;;;;;;1.83;1.73;;;;;;;9.53;97.30;94700.94;5111170;28;20432;-56
2023/03/10 05:29:11;;;;;;;0.40;0.40;;;;;;;9.18;99.06;94706.50;5111113;28;20453;-56
2023/03/10 05:31:39;;;;;;;1.13;1.13;;;;;;;8.99;100.00;94710.81;5111297;28;20555;-56
2023/03/10 05:34:08;;;;;;;1.07;1.07;;;;;;;9.09;100.00;94708.13;5110482;28;20427;-56
2023/03/10 05:36:36;;;;;;;0.60;0.57;;;;;;;9.18;98.86;94707.28;5110964;28;20526;-56
2023/03/10 05:39:05;;;;;;;0.97;0.97;;;;;;;9.33;96.67;94703.75;5111214;28;20462;-56
2023/03/10 05:41:35;;;;;;;3.73;3.53;;;;;;;9.05;99.72;94701.81;5111147;28;20506;-56
2023/03/10 05:44:04;;;;;;;6.40;5.80;;;;;;;9.18;100.00;94706.50;5111123;28;20431;-56
2023/03/10 05:46:34;;;;;;;5.17;3.17;;;;;;;9.28;99.85;94712.50;5111297;28;20461;-56
2023/03/10 05:49:02;;;;;;;5.43;3.10;;;;;;;9.07;100.00;94718.19;5111313;28;20424;-56
2023/03/10 05:51:30;;;;;;;2.60;2.50;;;;;;;9.31;98.68;94709.28;5111306;28;20429;-56
2023/03/10 05:53:59;;;;;;;5.63;2.20;;;;;;;9.46;96.49;94711.81;5111328;28;20523;-56
2023/03/10 05:56:27;;;;;;;1.00;0.87;;;;;;;9.47;97.18;94715.25;5111425;28;20436;-56
2023/03/10 05:58:55;;;;;;;1.73;1.70;;;;;;;9.04;96.14;94642.88;5111089;28;20429;-57
2023/03/10 06:01:24;;;;;;;0.60;0.60;;;;;;;9.56;95.84;94713.63;5111667;28;20473;-57
2023/03/10 06:03:54;;;;;;;0.70;0.70;;;;;;;9.57;95.23;94709.88;5111763;28;20433;-57
2023/03/10 06:06:22;;;;;;;1.67;1.33;;;;;;;9.29;95.66;94700.84;5111492;28;20456;-57
2023/03/10 06:08:50;;;;;;;0.87;0.87;;;;;;;9.34;95.14;94666.44;5111337;28;20429;-57
2023/03/10 06:11:19;;;;;;;1.40;1.37;;;;;;;9.68;96.00;94695.50;5111444;28;20772;-57
2023/03/10 06:13:47;;;;;;;1.97;1.67;;;;;;;9.68;94.54;94692.88;5111274;28;20432;-57
2023/03/10 06:16:15;;;;;;;4.30;1.40;;;;;;;9.18;92.95;94606.81;5111374;28;20466;-57
2023/03/10 06:18:43;;;;;;;3.90;1.93;;;;;;;9.84;92.14;94678.41;5111594;28;20439;-57
2023/03/10 06:21:15;;;;;;;0.73;0.73;;;;;;;10.26;89.67;94690.19;5110975;28;20487;-57
2023/03/10 06:23:43;;;;;;;1.37;1.30;;;;;;;10.58;87.10;94685.03;5113880;28;20636;-57
2023/03/10 06:26:13;;;;;;;1.67;1.40;;;;;;;10.50;87.62;94678.50;5115689;28;20465;-57
2023/03/10 06:28:43;;;;;;;2.37;2.17;;;;;;;9.91;91.33;94692.13;5115553;28;20466;-56
2023/03/10 06:31:15;;;;;;;2.30;2.30;;;;;;;10.09;90.72;94674.75;5115613;28;20430;-57
2023/03/10 06:33:46;;;;;;;1.17;1.17;;;;;;;10.24;88.94;94660.56;5115499;28;20486;-57
2023/03/10 06:36:16;;;;;;;1.67;0.70;;;;;;;10.25;88.86;94707.94;5115297;28;20518;-56
2023/03/10 06:38:45;;;;;;;1.37;1.27;;;;;;;10.09;93.31;94722.41;5114912;28;20433;-56
2023/03/10 06:41:14;;;;;;;1.70;0.80;;;;;;;10.42;100.00;94716.25;5114748;28;21000;-54
2023/03/10 06:43:42;;;;;;;1.97;1.87;;;;;;;10.88;100.00;94697.91;5114704;28;20920;-54
2023/03/10 06:46:12;;;;;;;0.87;0.87;;;;;;;11.24;100.00;94701.66;5114644;28;20457;-54
2023/03/10 06:48:41;;;;;;;1.20;1.13;;;;;;;11.86;100.00;94696.97;5115186;28;20431;-54
2023/03/10 06:51:13;;;;;;;1.90;1.80;;;;;;;12.29;100.00;94701.00;5114469;28;20534;-54
2023/03/10 06:53:42;;;;;;;0.83;0.83;;;;;;;12.22;88.43;94700.56;5114326;28;20442;-54
2023/03/10 06:56:13;;;;;;;1.93;1.40;;;;;;;12.01;85.90;94689.53;5114415;28;20424;-55
2023/03/10 06:58:42;;;;;;;0.63;0.63;;;;;;;12.20;90.29;94708.06;5114510;28;20539;-56
2023/03/10 07:01:20;;;;;;;0.97;0.97;;;;;;;12.10;88.46;94629.34;5114333;28;20468;-57
2023/03/10 07:03:49;;;;;;;1.00;1.00;;;;;;;12.60;87.03;94707.28;5114307;28;20463;-57
2023/03/10 07:06:17;;;;;;;0.43;0.40;;;;;;;12.56;80.22;94679.72;5114216;28;20424;-57
2023/03/10 07:08:47;;;;;;;1.77;1.67;;;;;;;12.52;80.15;94630.88;5113805;28;20452;-56
2023/03/10 07:11:16;;;;;;;0.60;0.60;;;;;;;12.85;79.21;94700.66;5114307;28;20430;-56
2023/03/10 07:13:44;;;;;;;0.93;0.93;;;;;;;13.15;83.84;94705.38;5114492;28;20464;-56
2023/03/10 07:16:13;;;;;;;1.97;1.77;;;;;;;12.88;81.33;94644.22;5113985;28;20448;-58
2023/03/10 07:18:41;;;;;;;1.23;1.13;;;;;;;13.00;79.70;94692.38;5114032;28;20435;-58
2023/03/10 07:21:10;;;;;;;1.07;1.00;;;;;;;13.04;81.02;94688.03;5113530;28;20483;-55
2023/03/10 07:23:40;;;;;;;1.10;1.10;;;;;;;12.75;83.89;94693.69;5113904;28;20446;-56
2023/03/10 07:26:11;;;;;;;16.73;1.30;;;;;;;13.19;84.21;94690.38;5113898;28;20438;-57
2023/03/10 07:28:40;;;;;;;2.30;1.50;;;;;;;13.68;82.27;94692.19;5114045;28;20459;-57
2023/03/10 07:31:15;;;;;;;0.63;0.63;;;;;;;13.60;73.21;94682.25;5114247;28;20420;-53
2023/03/10 07:33:44;;;;;;;1.73;1.03;;;;;;;12.59;80.76;94596.72;5113192;28;20432;-56
2023/03/10 07:36:15;;;;;;;1.23;0.90;;;;;;;13.04;73.59;94672.06;5113636;28;20460;-54
2023/03/10 07:38:43;;;;;;;1.10;1.10;;;;;;;12.80;73.27;94676.06;5113612;28;20904;-55
2023/03/10 07:41:16;;;;;;;3.03;1.43;;;;;;;12.61;74.28;94676.16;5113367;28;20424;-54
2023/03/10 07:43:44;;;;;;;2.07;0.83;;;;;;;12.60;74.28;94674.59;5113693;28;20933;-52
2023/03/10 07:46:14;;;;;;;0.67;0.67;;;;;;;12.48;75.99;94682.28;5112944;28;20438;-54
2023/03/10 07:48:43;;;;;;;2.20;1.97;;;;;;;12.66;76.37;94671.53;5113211;28;20625;-54
2023/03/10 07:51:12;;;;;;;0.60;0.47;;;;;;;12.08;77.36;94683.84;5113287;28;20824;-54
2023/03/10 07:53:40;;;;;;;0.60;0.60;;;;;;;12.79;77.16;94671.81;5113057;28;20446;-54
2023/03/10 07:56:10;;;;;;;0.50;0.50;;;;;;;11.91;75.83;94598.66;5112812;28;20508;-54
2023/03/10 07:58:41;;;;;;;0.70;0.70;;;;;;;12.34;76.77;94676.19;5112967;28;20530;-54
2023/03/10 08:01:15;;;;;;;0.40;0.30;;;;;;;12.08;76.75;94678.53;5113497;28;20424;-54
2023/03/10 08:03:44;;;;;;;1.10;1.07;;;;;;;12.30;76.81;94660.03;5113491;28;20463;-54
2023/03/10 08:06:17;;;;;;;0.80;0.77;;;;;;;12.83;76.07;94688.72;5113241;28;20490;-54
2023/03/10 08:08:45;;;;;;;0.60;0.60;;;;;;;12.21;76.72;94688.38;5112958;28;20427;-55
2023/03/10 08:11:14;;;;;;;0.47;0.47;;;;;;;11.88;77.75;94650.47;5112785;28;20515;-54
2023/03/10 08:13:46;;;;;;;2.30;2.13;;;;;;;12.30;78.03;94683.94;5113089;28;20453;-54
2023/03/10 08:16:15;;;;;;;0.50;0.50;;;;;;;12.59;77.24;94660.53;5112871;28;20466;-54
2023/03/10 08:18:44;;;;;;;0.40;0.30;;;;;;;13.29;74.63;94662.75;5113141;28;20424;-54
2023/03/10 08:21:15;;;;;;;0.57;0.53;;;;;;;12.37;73.86;94522.25;5112700;28;20479;-55
2023/03/10 08:23:43;;;;;;;1.57;0.60;;;;;;;12.17;75.46;94594.41;5113087;28;20482;-55
2023/03/10 08:26:15;;;;;;;2.60;0.97;;;;;;;13.36;74.33;94679.06;5112607;28;20519;-55
2023/03/10 08:28:44;;;;;;;1.80;0.63;;;;;;;13.40;72.42;94684.59;5113208;28;20810;-55
2023/03/10 08:31:15;;;;;;;0.80;0.60;;;;;;;12.99;74.48;94680.16;5112673;28;20432;-54
2023/03/10 08:33:44;;;;;;;0.40;0.30;;;;;;;13.23;73.22;94677.28;5112538;28;20435;-54
2023/03/10 08:36:15;;;;;;;0.40;0.30;;;;;;;14.19;71.57;94662.38;5112831;28;20531;-54
2023/03/10 08:38:44;;;;;;;0.70;0.70;;;;;;;13.79;69.57;94674.03;5112472;28;20520;-54
2023/03/10 08:41:14;;;;;;;0.67;0.60;;;;;;;14.02;69.44;94662.28;5112651;28;20459;-54
2023/03/10 08:43:45;;;;;;;0.63;0.63;;;;;;;14.49;69.17;94660.78;5112493;28;20967;-54
2023/03/10 08:46:17;;;;;;;0.60;0.60;;;;;;;15.15;66.85;94648.97;5111475;28;20511;-54
2023/03/10 08:48:46;;;;;;;0.40;0.30;;;;;;;15.40;65.16;94655.41;5112792;28;20485;-55
2023/03/10 08:51:15;;;;;;;0.60;0.40;;;;;;;14.69;64.98;94604.19;5112301;28;20430;-55
2023/03/10 08:53:45;;;;;;;0.40;0.40;;;;;;;15.47;65.08;94661.09;5112619;28;20508;-55
2023/03/10 08:56:15;;;;;;;1.20;1.10;;;;;;;15.60;63.16;94662.81;5112226;28;20995;-56
2023/03/10 08:58:45;;;;;;;0.50;0.40;;;;;;;16.16;63.08;94643.84;5112501;28;20419;-56
2023/03/10 09:01:15;;;;;;;0.50;0.50;;;;;;;16.57;61.90;94647.78;5112290;28;20439;-55
2023/03/10 09:03:44;;;;;;;0.40;0.30;;;;;;;17.13;59.40;94645.38;5111784;28;20550;-55
2023/03/10 09:06:14;;;;;;;0.50;0.40;;;;;;;17.10;59.87;94637.97;5112463;28;20488;-55
2023/03/10 09:08:42;;;;;;;0.80;0.80;;;;;;;17.40;58.82;94553.00;5112344;28;20465;-55
2023/03/10 09:11:16;;;;;;;3.80;0.53;;;;;;;17.34;57.10;94556.97;5112015;28;20443;-56
2023/03/10 09:13:45;;;;;;;0.77;0.77;;;;;;;17.96;57.79;94591.66;5111538;28;20432;-57
2023/03/10 09:16:14;;;;;;;0.50;0.40;;;;;;;18.52;53.95;94614.22;5112132;28;20427;-58
2023/03/10 09:18:42;;;;;;;1.87;0.40;;;;;;;17.88;54.21;94611.34;5111817;28;20430;-58
2023/03/10 09:21:13;;;;;;;0.50;0.40;;;;;;;17.99;54.11;94600.94;5111867;28;20495;-58
2023/03/10 09:23:42;;;;;;;0.70;0.70;;;;;;;18.55;53.35;94597.44;5111533;28;20474;-58
2023/03/10 09:26:11;;;;;;;0.40;0.30;;;;;;;18.49;52.03;94603.38;5111505;28;20431;-58
2023/03/10 09:28:39;;;;;;;0.50;0.40;;;;;;;18.70;52.64;94598.66;5111067;28;20512;-58
2023/03/10 09:31:12;;;;;;;0.83;0.83;;;;;;;18.87;51.09;94588.44;5111948;28;20420;-58
2023/03/10 09:33:41;;;;;;;2.00;0.50;;;;;;;18.02;52.17;94520.63;5111603;28;20916;-58
2023/03/10 09:36:10;;;;;;;0.50;0.40;;;;;;;17.64;53.08;94542.38;5111602;28;20507;-58
2023/03/10 09:38:40;;;;;;;1.13;1.00;;;;;;;18.17;53.52;94575.50;5111975;28;21042;-58
2023/03/10 09:41:33;;;;;;;0.93;0.93;;;;;;;18.05;52.77;94567.44;5111675;28;20487;-58
2023/03/10 09:44:17;;;;;;;0.40;0.30;;;;;;;18.99;53.50;94558.91;5111590;28;20482;-57
2023/03/10 09:46:55;;;;;;;1.57;0.70;;;;;;;18.95;52.39;94555.31;5111636;28;20459;-57
2023/03/10 09:49:31;;;;;;;0.60;0.53;;;;;;;18.23;52.54;94555.41;5111807;28;20530;-58
2023/03/10 09:52:03;;;;;;;0.90;0.60;;;;;;;18.63;51.74;94518.72;5111982;28;20432;-58
2023/03/10 09:54:40;;;;;;;0.40;0.20;;;;;;;19.60;50.93;94545.25;5111556;28;20452;-58
2023/03/10 09:57:15;;;;;;;0.50;0.40;;;;;;;18.37;51.26;94511.00;5112993;28;20424;-58
2023/03/10 09:59:45;;;;;;;2.83;0.83;;;;;;;18.41;51.83;94543.31;5115842;28;20455;-58
2023/03/10 10:02:21;;;;;;;0.50;0.40;;;;;;;19.03;50.96;94546.34;5115510;28;20477;-58
2023/03/10 10:04:55;;;;;;;0.50;0.43;;;;;;;19.25;50.20;94541.59;5115451;28;20432;-58
2023/03/10 10:07:29;;;;;;;1.00;0.80;;;;;;;19.10;51.02;94536.94;5115485;28;20479;-58
2023/03/10 10:10:05;;;;;;;0.40;0.30;;;;;;;19.62;49.75;94494.63;5115129;28;20420;-57
2023/03/10 10:12:34;;;;;;;0.50;0.30;;;;;;;19.67;49.67;94528.53;5115366;28;20432;-57
2023/03/10 10:15:13;;;;;;;0.80;0.80;;;;;;;21.26;47.49;94523.00;5115255;28;20428;-56
2023/03/10 10:17:56;;;;;;;0.40;0.27;;;;;;;21.76;45.76;94515.81;5115082;28;20436;-56
2023/03/10 10:20:42;;;;;;;0.40;0.33;;;;;;;20.11;47.97;94514.66;5115225;28;20431;-56
2023/03/10 10:23:21;;;;;;;2.77;2.67;;;;;;;19.37;49.36;94503.94;5115243;28;20596;-57
2023/03/10 10:25:49;;;;;;;0.40;0.40;;;;;;;19.30;51.23;94512.53;5114685;28;20430;-57
2023/03/10 10:28:26;;;;;;;0.40;0.37;;;;;;;19.26;52.00;94517.06;5115239;28;20920;-57
2023/03/10 10:31:13;;;;;;;0.60;0.50;;;;;;;18.77;53.02;94497.66;5114973;28;20911;-56
2023/03/10 10:34:00;;;;;;;0.40;0.40;;;;;;;18.70;51.60;94440.28;5114887;28;20591;-56
2023/03/10 10:36:31;;;;;;;0.73;0.73;;;;;;;18.56;52.25;94472.88;5115113;28;20893;-56
2023/03/10 10:39:00;;;;;;;1.70;1.60;;;;;;;18.93;53.26;94487.75;5115027;28;20523;-56
2023/03/10 10:41:31;;;;;;;0.40;0.30;;;;;;;19.25;51.54;94475.19;5115006;28;20420;-56
2023/03/10 10:44:07;;;;;;;1.73;0.60;;;;;;;19.00;52.48;94449.56;5114896;28;20503;-56
2023/03/10 10:46:35;;;;;;;0.70;0.70;;;;;;;18.81;53.41;94379.63;5114846;28;20418;-56
2023/03/10 10:49:08;;;;;;;0.70;0.47;;;;;;;19.46;53.91;94465.03;5115007;28;20957;-56
2023/03/10 10:51:39;;;;;;;1.17;0.60;;;;;;;19.78;52.56;94454.31;5114578;28;20432;-56
2023/03/10 10:54:27;;;;;;;0.30;0.20;;;;;;;19.49;51.50;94453.59;5114419;28;20439;-56
2023/03/10 10:56:57;;;;;;;0.60;0.30;;;;;;;19.32;53.10;94450.44;5114358;28;20439;-56
2023/03/10 10:59:30;;;;;;;2.20;0.40;;;;;;;19.49;51.92;94450.13;5114566;28;20942;-56
2023/03/10 11:02:00;;;;;;;1.13;1.03;;;;;;;19.46;52.57;94440.84;5114371;28;20423;-56
2023/03/10 11:04:42;;;;;;;0.80;0.30;;;;;;;19.34;52.90;94418.59;5114137;28;21032;-56
2023/03/10 11:07:16;;;;;;;0.53;0.53;;;;;;;19.50;54.19;94416.75;5114068;28;20785;-56
2023/03/10 11:09:44;;;;;;;0.80;0.67;;;;;;;19.51;52.35;94426.34;5113377;28;20477;-56
2023/03/10 11:12:20;;;;;;;0.40;0.20;;;;;;;19.14;51.62;94344.41;5114300;28;20428;-56
2023/03/10 11:15:06;;;;;;;0.60;0.40;;;;;;;19.82;51.47;94409.44;5114496;28;20427;-57
2023/03/10 11:17:41;;;;;;;0.43;0.37;;;;;;;18.70;53.32;94357.88;5114123;28;20428;-58
2023/03/10 11:20:24;;;;;;;0.50;0.50;;;;;;;18.51;53.91;94389.94;5114208;28;20431;-58
2023/03/10 11:23:00;;;;;;;0.57;0.50;;;;;;;17.59;55.88;94395.19;5113802;28;20566;-58
2023/03/10 11:25:36;;;;;;;1.90;1.80;;;;;;;16.98;58.18;94418.41;5113892;28;20506;-57
2023/03/10 11:28:19;;;;;;;0.70;0.70;;;;;;;16.81;59.12;94409.78;5114238;28;20811;-57
2023/03/10 11:30:52;;;;;;;2.07;0.67;;;;;;;15.57;60.46;94284.19;5113804;28;20606;-59
2023/03/10 11:33:28;;;;;;;1.17;1.17;;;;;;;16.72;62.74;94399.13;5113939;28;20916;-59
2023/03/10 11:36:05;;;;;;;0.60;0.60;;;;;;;16.49;63.41;94398.69;5113802;28;20471;-59
2023/03/10 11:38:41;;;;;;;0.40;0.30;;;;;;;16.86;65.44;94399.66;5114032;28;20462;-59
2023/03/10 11:41:14;;;;;;;2.50;0.67;;;;;;;16.83;66.84;94402.97;5113966;28;20494;-59
2023/03/10 11:43:53;;;;;;;2.57;0.57;;;;;;;16.34;69.30;94393.19;5113800;28;20499;-60
2023/03/10 11:46:28;;;;;;;0.83;0.50;;;;;;;16.59;70.85;94389.53;5113783;28;20436;-60
2023/03/10 11:49:06;;;;;;;0.53;0.53;;;;;;;16.38;72.74;94394.88;5113451;28;20492;-60
2023/03/10 11:51:39;;;;;;;0.90;0.90;;;;;;;16.58;74.25;94387.16;5113633;28;20514;-60
2023/03/10 11:54:14;;;;;;;0.67;0.50;;;;;;;16.80;73.88;94382.22;5113659;28;20435;-59